Time;durP1;ratioP1;P1;durP2;ratioP2;P2;SDS_P1;SDS_P2;PMS_P1;PMS_P2;Temp;Humidity;BMP_temperature;BMP_pressure;BME280_temperature;BME280_humidity;BME280_pressure;Samples;Min_cycle;Max_cycle;Signal;HPM_P1;HPM_P2
2021/03/12 00:00:53;;;;;;;21.20;13.90;;;154.00;1536.00;;;;;;5008136;28;20096;-72
2021/03/12 00:03:30;;;;;;;24.42;14.02;;;154.00;1510.40;;;;;;5008661;28;20018;-72
2021/03/12 00:05:58;;;;;;;22.80;13.30;;;154.10;1510.40;;;;;;5009733;28;20030;-71
2021/03/12 00:08:39;;;;;;;22.60;13.43;;;154.00;1510.40;;;;;;5009942;28;20384;-70
2021/03/12 00:11:06;;;;;;;19.75;14.10;;;154.00;1510.40;;;;;;5008159;28;20033;-73
2021/03/12 00:13:33;;;;;;;21.58;14.27;;;154.00;1510.40;;;;;;5010099;28;20034;-71
2021/03/12 00:15:59;;;;;;;21.35;13.82;;;154.00;1510.40;;;;;;5009128;28;20038;-71
2021/03/12 00:18:32;;;;;;;19.15;12.75;;;153.90;1536.00;;;;;;5010149;28;20014;-71
2021/03/12 00:20:57;;;;;;;18.90;13.65;;;153.80;1536.00;;;;;;5009822;28;20049;-71
2021/03/12 00:23:23;;;;;;;16.85;12.40;;;153.70;1536.00;;;;;;5009667;28;20072;-71
2021/03/12 00:25:49;;;;;;;18.25;12.90;;;153.80;1536.00;;;;;;5009678;28;20353;-71
2021/03/12 00:28:16;;;;;;;17.60;11.82;;;153.70;1536.00;;;;;;5010070;28;20026;-70
2021/03/12 00:30:43;;;;;;;18.10;12.75;;;153.70;1536.00;;;;;;5009530;28;20038;-69
2021/03/12 00:33:09;;;;;;;19.25;12.80;;;153.70;1536.00;;;;;;5010559;28;20031;-69
2021/03/12 00:35:37;;;;;;;18.92;13.35;;;153.70;1536.00;;;;;;5009383;28;20080;-69
2021/03/12 00:38:03;;;;;;;19.65;12.82;;;153.70;1536.00;;;;;;5010507;28;20037;-70
2021/03/12 00:40:34;;;;;;;16.95;12.80;;;153.60;1561.60;;;;;;5010472;28;20105;-70
2021/03/12 00:43:00;;;;;;;19.27;14.07;;;153.60;1561.60;;;;;;5010403;28;20100;-70
2021/03/12 00:45:28;;;;;;;18.70;12.80;;;128.90;1561.60;;;;;;5009386;28;20560;-69
2021/03/12 00:47:54;;;;;;;19.58;13.18;;;128.90;1561.60;;;;;;5009376;28;20110;-70
2021/03/12 00:50:28;;;;;;;17.88;12.98;;;128.90;1561.60;;;;;;5009048;28;20046;-69
2021/03/12 00:52:54;;;;;;;18.77;12.73;;;128.90;1587.20;;;;;;5009382;28;20076;-69
2021/03/12 00:55:20;;;;;;;18.48;12.13;;;153.60;1587.20;;;;;;5009067;28;20033;-69
2021/03/12 00:57:46;;;;;;;18.98;13.25;;;128.80;1587.20;;;;;;5010567;28;20029;-69
2021/03/12 01:00:12;;;;;;;18.63;12.98;;;128.80;1587.20;;;;;;5010580;28;20076;-69
2021/03/12 01:02:38;;;;;;;19.95;12.30;;;128.70;1587.20;;;;;;5010392;28;20026;-69
2021/03/12 01:05:05;;;;;;;18.30;11.70;;;128.80;1587.20;;;;;;5010441;28;20064;-70
2021/03/12 01:07:31;;;;;;;16.40;11.73;;;128.70;1587.20;;;;;;5010219;28;20030;-69
2021/03/12 01:09:57;;;;;;;16.75;12.02;;;128.70;1587.20;;;;;;5010219;28;20100;-70
2021/03/12 01:12:23;;;;;;;16.95;12.10;;;128.70;1587.20;;;;;;5010559;28;20046;-69
2021/03/12 01:14:49;;;;;;;18.50;11.90;;;128.70;1587.20;;;;;;5010054;28;20034;-70
2021/03/12 01:17:14;;;;;;;18.25;12.52;;;128.70;1612.80;;;;;;5010923;28;20050;-70
2021/03/12 01:19:40;;;;;;;18.10;12.25;;;128.70;1587.20;;;;;;5013984;28;20037;-69
2021/03/12 01:22:06;;;;;;;17.58;12.40;;;128.70;1587.20;;;;;;5014190;28;20028;-70
2021/03/12 01:24:32;;;;;;;17.42;11.95;;;128.70;1587.20;;;;;;5012745;28;20037;-70
2021/03/12 01:26:59;;;;;;;16.85;11.77;;;128.70;1587.20;;;;;;5012544;28;20022;-70
2021/03/12 01:29:25;;;;;;;16.27;11.23;;;128.70;1612.80;;;;;;5012595;28;20026;-70
2021/03/12 01:31:51;;;;;;;16.85;11.20;;;128.70;1612.80;;;;;;5013777;28;20030;-71
2021/03/12 01:34:17;;;;;;;15.70;11.45;;;128.60;1612.80;;;;;;5012444;28;20030;-69
2021/03/12 01:36:42;;;;;;;15.88;11.43;;;128.70;1612.80;;;;;;5013858;28;20065;-70
2021/03/12 01:39:08;;;;;;;17.95;12.25;;;128.70;1612.80;;;;;;5013573;28;20026;-70
2021/03/12 01:41:34;;;;;;;17.65;12.43;;;128.70;1612.80;;;;;;5013704;28;20054;-70
2021/03/12 01:44:00;;;;;;;15.38;11.40;;;128.70;1612.80;;;;;;5028435;28;20049;-69
2021/03/12 01:46:25;;;;;;;20.08;11.95;;;128.70;1612.80;;;;;;5013581;28;20366;-70
2021/03/12 01:48:51;;;;;;;20.63;13.27;;;128.70;1612.80;;;;;;5013429;28;20560;-69
2021/03/12 01:51:17;;;;;;;21.52;12.90;;;128.70;1612.80;;;;;;5011817;28;20046;-70
2021/03/12 01:53:43;;;;;;;22.70;13.43;;;128.70;1612.80;;;;;;5013402;28;20018;-69
2021/03/12 01:56:09;;;;;;;21.70;12.93;;;128.70;1612.80;;;;;;5013148;28;20034;-70
2021/03/12 01:58:35;;;;;;;26.48;14.75;;;128.80;1587.20;;;;;;5013307;28;20026;-70
2021/03/12 02:01:02;;;;;;;26.58;14.40;;;128.80;1587.20;;;;;;5013148;28;20105;-70
2021/03/12 02:03:30;;;;;;;27.25;14.30;;;128.80;1587.20;;;;;;5013185;28;20026;-69
2021/03/12 02:05:56;;;;;;;28.48;14.52;;;128.70;1612.80;;;;;;5013274;28;20021;-69
2021/03/12 02:08:22;;;;;;;27.65;14.68;;;128.70;1612.80;;;;;;5013258;28;20101;-73
2021/03/12 02:10:49;;;;;;;27.60;14.57;;;128.80;1587.20;;;;;;5013032;28;20405;-73
2021/03/12 02:13:31;;;;;;;32.60;15.70;;;128.80;1587.20;;;;;;5012997;28;20461;-73
2021/03/12 02:16:04;;;;;;;39.17;18.50;;;128.90;1587.20;;;;;;5012995;28;20226;-73
2021/03/12 02:18:50;;;;;;;33.65;16.60;;;128.90;1587.20;;;;;;5011564;28;20372;-73
2021/03/12 02:21:35;;;;;;;31.77;16.17;;;128.90;1587.20;;;;;;5012948;28;20028;-74
2021/03/12 02:24:40;;;;;;;31.05;15.63;;;128.90;1587.20;;;;;;5012699;28;20026;-69
2021/03/12 02:27:09;;;;;;;29.02;14.75;;;128.90;1587.20;;;;;;5010886;28;20030;-69
2021/03/12 02:29:41;;;;;;;30.05;15.43;;;128.90;1587.20;;;;;;5012274;28;20030;-70
2021/03/12 02:32:09;;;;;;;35.47;16.73;;;153.60;1587.20;;;;;;5012322;28;20037;-71
2021/03/12 02:34:38;;;;;;;32.53;15.80;;;128.90;1587.20;;;;;;5012171;28;20044;-70
2021/03/12 02:37:06;;;;;;;29.08;15.52;;;128.90;1587.20;;;;;;5012657;28;20029;-69
2021/03/12 02:39:35;;;;;;;31.02;16.17;;;128.80;1587.20;;;;;;5011211;28;20034;-70
2021/03/12 02:42:02;;;;;;;30.70;15.98;;;128.90;1587.20;;;;;;5012438;28;20445;-70
2021/03/12 02:44:30;;;;;;;31.40;16.30;;;128.90;1587.20;;;;;;5012204;28;20029;-71
2021/03/12 02:47:09;;;;;;;31.55;16.83;;;128.90;1587.20;;;;;;5012445;28;20781;-69
2021/03/12 02:49:36;;;;;;;25.48;14.75;;;128.90;1587.20;;;;;;5012300;28;20026;-70
2021/03/12 02:52:02;;;;;;;25.63;14.93;;;128.90;1587.20;;;;;;5011235;28;20037;-70
2021/03/12 02:54:28;;;;;;;23.25;14.25;;;128.90;1587.20;;;;;;5010778;28;20030;-70
2021/03/12 02:56:55;;;;;;;25.83;14.63;;;128.90;1587.20;;;;;;5010632;28;20038;-69
2021/03/12 02:59:21;;;;;;;28.25;16.27;;;153.60;1587.20;;;;;;5012149;28;20029;-70
2021/03/12 03:01:50;;;;;;;28.25;16.35;;;153.60;1587.20;;;;;;5012238;28;20025;-70
2021/03/12 03:04:17;;;;;;;27.42;14.95;;;128.90;1587.20;;;;;;5012107;28;20041;-69
2021/03/12 03:06:43;;;;;;;20.48;13.60;;;128.90;1587.20;;;;;;5012143;28;20053;-70
2021/03/12 03:09:10;;;;;;;19.17;13.05;;;128.90;1587.20;;;;;;5012152;28;20018;-69
2021/03/12 03:11:37;;;;;;;24.33;14.30;;;128.90;1587.20;;;;;;5012033;28;20029;-70
2021/03/12 03:14:05;;;;;;;17.88;12.82;;;128.80;1587.20;;;;;;5010424;28;20034;-70
2021/03/12 03:16:35;;;;;;;20.95;14.43;;;128.90;1587.20;;;;;;5011623;28;20108;-71
2021/03/12 03:19:02;;;;;;;18.77;13.18;;;128.90;1587.20;;;;;;5011665;28;20022;-70
2021/03/12 03:21:28;;;;;;;17.58;12.52;;;128.90;1587.20;;;;;;5010308;28;20030;-70
2021/03/12 03:23:54;;;;;;;16.70;11.82;;;128.90;1587.20;;;;;;5011724;28;20026;-69
2021/03/12 03:26:20;;;;;;;16.73;12.63;;;128.90;1587.20;;;;;;5011651;28;20447;-73
2021/03/12 03:28:46;;;;;;;15.55;12.15;;;128.90;1587.20;;;;;;5011805;28;20025;-73
2021/03/12 03:31:12;;;;;;;17.30;12.40;;;128.90;1587.20;;;;;;5011662;28;20436;-73
2021/03/12 03:33:38;;;;;;;17.25;12.75;;;128.90;1587.20;;;;;;5011448;28;20026;-70
2021/03/12 03:36:04;;;;;;;15.82;12.07;;;128.80;1587.20;;;;;;5011684;28;20383;-71
2021/03/12 03:38:30;;;;;;;16.73;12.30;;;128.80;1587.20;;;;;;5011382;28;20029;-70
2021/03/12 03:40:57;;;;;;;15.65;11.63;;;128.80;1612.80;;;;;;5010785;28;20571;-70
2021/03/12 03:43:29;;;;;;;16.10;11.68;;;128.80;1612.80;;;;;;5011402;28;20076;-72
2021/03/12 03:46:00;;;;;;;14.07;11.48;;;128.80;1612.80;;;;;;5010181;28;20084;-73
2021/03/12 03:48:27;;;;;;;15.73;11.13;;;128.70;1612.80;;;;;;5011440;28;20408;-73
2021/03/12 03:50:55;;;;;;;16.10;11.70;;;128.80;1612.80;;;;;;5011299;28;20030;-72
2021/03/12 03:53:21;;;;;;;15.40;11.90;;;128.80;1612.80;;;;;;5011232;28;20080;-73
2021/03/12 03:55:49;;;;;;;16.42;12.40;;;128.70;1612.80;;;;;;5011092;28;20477;-70
2021/03/12 03:58:16;;;;;;;16.83;11.27;;;128.70;1612.80;;;;;;5011284;28;20045;-72
2021/03/12 04:00:43;;;;;;;14.80;11.13;;;128.70;1612.80;;;;;;5011244;28;20480;-71
2021/03/12 04:03:09;;;;;;;15.27;11.90;;;128.70;1612.80;;;;;;5011051;28;20045;-69
2021/03/12 04:05:36;;;;;;;14.55;10.93;;;128.70;1612.80;;;;;;5011122;28;20080;-70
2021/03/12 04:08:02;;;;;;;15.30;11.65;;;128.70;1612.80;;;;;;5011252;28;20029;-69
2021/03/12 04:10:28;;;;;;;16.13;11.98;;;128.70;1612.80;;;;;;5010922;28;20026;-70
2021/03/12 04:12:55;;;;;;;16.52;11.38;;;128.60;1612.80;;;;;;5010874;28;20487;-71
2021/03/12 04:15:22;;;;;;;15.15;11.48;;;128.50;1638.40;;;;;;5010568;28;20108;-71
2021/03/12 04:17:48;;;;;;;15.10;11.40;;;128.50;1638.40;;;;;;5010859;28;20105;-72
2021/03/12 04:20:15;;;;;;;18.13;12.05;;;128.50;1638.40;;;;;;5009602;28;20033;-72
2021/03/12 04:22:42;;;;;;;16.10;12.02;;;128.50;1638.40;;;;;;5010758;28;20018;-73
2021/03/12 04:25:08;;;;;;;15.65;11.68;;;128.50;1638.40;;;;;;5009430;28;20049;-74
2021/03/12 04:27:35;;;;;;;16.83;12.10;;;128.50;1638.40;;;;;;5010910;28;20022;-74
2021/03/12 04:30:03;;;;;;;16.15;11.93;;;128.50;1638.40;;;;;;5010662;28;20025;-74
2021/03/12 04:32:29;;;;;;;17.00;11.07;;;128.50;1638.40;;;;;;5010632;28;20029;-74
2021/03/12 04:34:55;;;;;;;15.23;11.48;;;128.50;1638.40;;;;;;5010702;28;20038;-73
2021/03/12 04:37:22;;;;;;;14.85;11.07;;;128.60;1638.40;;;;;;5010589;28;20018;-70
2021/03/12 04:39:49;;;;;;;15.98;11.20;;;128.50;1638.40;;;;;;5025706;28;20064;-70
2021/03/12 04:42:15;;;;;;;15.30;11.60;;;128.60;1638.40;;;;;;5010824;28;20029;-71
2021/03/12 04:44:41;;;;;;;19.48;12.57;;;128.60;1638.40;;;;;;5010425;28;20026;-70
2021/03/12 04:47:07;;;;;;;15.48;11.73;;;128.60;1638.40;;;;;;5009300;28;20092;-71
2021/03/12 04:49:35;;;;;;;15.60;11.40;;;128.70;1638.40;;;;;;5010681;28;20033;-70
2021/03/12 04:52:01;;;;;;;15.82;12.07;;;128.70;1638.40;;;;;;5010838;28;20018;-70
2021/03/12 04:54:28;;;;;;;17.92;12.98;;;128.60;1638.40;;;;;;5013988;28;20037;-71
2021/03/12 04:56:55;;;;;;;18.50;13.25;;;128.60;1638.40;;;;;;5013273;28;20034;-70
2021/03/12 04:59:21;;;;;;;18.63;12.75;;;128.60;1638.40;;;;;;5013047;28;20383;-70
2021/03/12 05:01:48;;;;;;;18.90;13.43;;;128.60;1638.40;;;;;;5012984;28;20117;-71
2021/03/12 05:04:14;;;;;;;18.25;13.63;;;128.60;1664.00;;;;;;5014522;28;20014;-71
2021/03/12 05:06:44;;;;;;;19.20;12.77;;;128.60;1638.40;;;;;;5014199;28;20030;-70
2021/03/12 05:09:13;;;;;;;17.55;12.38;;;128.60;1664.00;;;;;;5014061;28;20029;-71
2021/03/12 05:11:42;;;;;;;17.25;12.25;;;128.60;1638.40;;;;;;5014049;28;20029;-71
2021/03/12 05:14:09;;;;;;;20.40;14.07;;;128.60;1664.00;;;;;;5013923;28;20029;-70
2021/03/12 05:16:34;;;;;;;17.85;12.43;;;128.60;1664.00;;;;;;5014125;28;20077;-71
2021/03/12 05:19:00;;;;;;;70.97;37.53;;;128.60;1664.00;;;;;;5013925;28;20473;-71
2021/03/12 05:21:26;;;;;;;77.55;46.83;;;128.60;1664.00;;;;;;5014213;28;20026;-70
2021/03/12 05:23:51;;;;;;;69.47;35.72;;;128.70;1664.00;;;;;;5014139;28;20048;-71
2021/03/12 05:26:17;;;;;;;29.35;22.48;;;128.70;1638.40;;;;;;5013802;28;20469;-71
2021/03/12 05:28:43;;;;;;;19.23;14.52;;;128.70;1638.40;;;;;;5013973;28;20045;-70
2021/03/12 05:31:08;;;;;;;18.38;13.27;;;128.70;1638.40;;;;;;5012514;28;20354;-71
2021/03/12 05:33:34;;;;;;;81.40;73.20;;;128.70;1638.40;;;;;;5012625;28;20026;-72
2021/03/12 05:36:00;;;;;;;26.45;23.38;;;128.80;1664.00;;;;;;5013671;28;20117;-71
2021/03/12 05:38:25;;;;;;;18.80;14.05;;;128.80;1664.00;;;;;;5012391;28;20022;-70
2021/03/12 05:40:52;;;;;;;19.85;13.23;;;128.80;1689.60;;;;;;5013819;28;20030;-70
2021/03/12 05:43:18;;;;;;;18.65;14.13;;;128.80;1664.00;;;;;;5013232;28;20022;-70
2021/03/12 05:45:45;;;;;;;21.25;13.85;;;128.80;1664.00;;;;;;5013624;28;20105;-71
2021/03/12 05:48:12;;;;;;;25.58;17.20;;;128.90;1664.00;;;;;;5013100;28;20034;-70
2021/03/12 05:50:39;;;;;;;26.08;17.10;;;128.90;1664.00;;;;;;5013351;28;20519;-73
2021/03/12 05:53:04;;;;;;;22.00;15.43;;;153.60;1664.00;;;;;;5013519;28;20026;-71
2021/03/12 05:55:30;;;;;;;21.65;14.68;;;153.60;1664.00;;;;;;5013152;28;20048;-70
2021/03/12 05:57:56;;;;;;;33.20;21.10;;;153.60;1664.00;;;;;;5013287;28;20022;-71
2021/03/12 06:00:22;;;;;;;29.30;17.92;;;153.60;1638.40;;;;;;5013374;28;20117;-71
2021/03/12 06:02:48;;;;;;;58.72;30.15;;;153.70;1638.40;;;;;;5013097;28;20064;-71
2021/03/12 06:05:14;;;;;;;64.50;36.72;;;153.70;1638.40;;;;;;5011027;28;20029;-71
2021/03/12 06:07:40;;;;;;;44.95;29.70;;;153.70;1638.40;;;;;;5013084;28;20033;-70
2021/03/12 06:10:07;;;;;;;38.58;23.42;;;153.70;1638.40;;;;;;5013255;28;20022;-71
2021/03/12 06:12:34;;;;;;;26.25;18.95;;;153.70;1638.40;;;;;;5013207;28;20044;-71
2021/03/12 06:15:01;;;;;;;24.40;16.35;;;153.70;1638.40;;;;;;5012717;28;20033;-71
2021/03/12 06:17:46;;;;;;;25.55;16.80;;;153.80;1638.40;;;;;;5011680;28;20057;-71
2021/03/12 06:20:15;;;;;;;28.27;17.08;;;153.90;1638.40;;;;;;5013061;28;20101;-71
2021/03/12 06:22:58;;;;;;;32.28;19.52;;;153.90;1638.40;;;;;;5011512;28;20026;-70
2021/03/12 06:25:26;;;;;;;28.92;18.27;;;153.80;1638.40;;;;;;5012921;28;20056;-70
2021/03/12 06:27:53;;;;;;;31.42;18.70;;;153.90;1638.40;;;;;;5012778;28;20030;-70
2021/03/12 06:30:23;;;;;;;28.35;18.95;;;153.90;1638.40;;;;;;5011326;28;20447;-70
2021/03/12 06:32:54;;;;;;;26.48;17.50;;;153.90;1638.40;;;;;;5012348;28;20088;-70
2021/03/12 06:35:25;;;;;;;24.38;16.45;;;153.90;1638.40;;;;;;5011196;28;20440;-70
2021/03/12 06:37:51;;;;;;;27.45;16.98;;;153.90;1638.40;;;;;;5027393;28;20037;-71
2021/03/12 06:40:28;;;;;;;23.05;15.25;;;154.00;1638.40;;;;;;5012622;28;20026;-70
2021/03/12 06:43:00;;;;;;;26.88;16.25;;;154.10;1664.00;;;;;;5012543;28;20022;-70
2021/03/12 06:45:26;;;;;;;25.23;15.30;;;154.00;1664.00;;;;;;5012587;28;20061;-70
2021/03/12 06:47:53;;;;;;;20.92;14.52;;;154.10;1689.60;;;;;;5012312;28;20116;-71
2021/03/12 06:50:20;;;;;;;26.77;15.07;;;154.10;1689.60;;;;;;5011975;28;20076;-71
2021/03/12 06:52:45;;;;;;;24.63;15.90;;;154.10;1664.00;;;;;;5012438;28;20029;-70
2021/03/12 06:55:11;;;;;;;27.05;16.55;;;154.20;1664.00;;;;;;5011656;28;20120;-70
2021/03/12 06:57:37;;;;;;;22.50;15.27;;;154.10;1689.60;;;;;;5010922;28;20389;-71
2021/03/12 07:00:07;;;;;;;28.02;16.42;;;154.20;1664.00;;;;;;5010970;28;20380;-70
2021/03/12 07:02:34;;;;;;;21.10;14.52;;;154.10;1664.00;;;;;;5012239;28;20416;-71
2021/03/12 07:05:00;;;;;;;24.65;14.95;;;154.20;1664.00;;;;;;5010591;28;20034;-70
2021/03/12 07:07:54;;;;;;;20.52;14.48;;;154.20;1664.00;;;;;;5010770;28;20045;-70
2021/03/12 07:10:20;;;;;;;22.85;13.35;;;154.20;1664.00;;;;;;5009842;28;20037;-70
2021/03/12 07:12:52;;;;;;;49.92;25.60;;;154.20;1664.00;;;;;;5010767;28;20037;-70
2021/03/12 07:15:19;;;;;;;23.00;14.90;;;154.30;1638.40;;;;;;5011457;28;20053;-75
2021/03/12 07:17:46;;;;;;;22.45;15.13;;;154.40;1638.40;;;;;;5012085;28;20033;-72
2021/03/12 07:20:15;;;;;;;21.08;14.02;;;154.50;1612.80;;;;;;5011933;28;20032;-75
2021/03/12 07:22:44;;;;;;;28.20;19.08;;;154.50;1612.80;;;;;;5010453;28;20459;-74
2021/03/12 07:25:10;;;;;;;43.28;27.00;;;179.20;1612.80;;;;;;5010382;28;20026;-74
2021/03/12 07:27:40;;;;;;;33.45;19.08;;;179.20;1612.80;;;;;;5011931;28;20018;-76
2021/03/12 07:30:09;;;;;;;67.28;39.95;;;179.30;1612.80;;;;;;5010474;28;20030;-74
2021/03/12 07:32:37;;;;;;;21.25;14.77;;;179.30;1587.20;;;;;;5011691;28;20472;-74
2021/03/12 07:35:03;;;;;;;43.80;26.77;;;179.30;1587.20;;;;;;5011682;28;20100;-75
2021/03/12 07:37:33;;;;;;;91.18;53.58;;;179.40;1587.20;;;;;;5010438;28;20366;-75
2021/03/12 07:40:00;;;;;;;64.55;37.72;;;179.40;1587.20;;;;;;5011408;28;20032;-72
2021/03/12 07:42:27;;;;;;;32.38;19.05;;;179.40;1587.20;;;;;;5011573;28;20025;-73
2021/03/12 07:44:54;;;;;;;49.20;29.15;;;179.40;1587.20;;;;;;5011531;28;20030;-73
2021/03/12 07:47:21;;;;;;;34.05;21.30;;;179.50;1587.20;;;;;;5011279;28;20032;-73
2021/03/12 07:49:47;;;;;;;43.22;26.88;;;179.50;1587.20;;;;;;5011219;28;20104;-73
2021/03/12 07:52:14;;;;;;;31.83;19.45;;;179.50;1587.20;;;;;;5011381;28;20018;-72
2021/03/12 07:54:49;;;;;;;36.90;22.50;;;179.50;1587.20;;;;;;5011251;28;20388;-73
2021/03/12 07:57:39;;;;;;;37.53;22.80;;;179.50;1587.20;;;;;;5011323;28;20022;-73
2021/03/12 08:00:07;;;;;;;38.53;21.83;;;179.60;1612.80;;;;;;5011228;28;20084;-74
2021/03/12 08:02:54;;;;;;;83.80;53.30;;;179.60;1587.20;;;;;;5011220;28;20029;-73
2021/03/12 08:05:29;;;;;;;56.08;32.15;;;179.60;1587.20;;;;;;5010926;28;20025;-74
2021/03/12 08:07:55;;;;;;;54.30;34.97;;;179.70;1612.80;;;;;;5011117;28;20022;-72
2021/03/12 08:10:22;;;;;;;61.72;41.33;;;179.70;1612.80;;;;;;5010900;28;20423;-73
2021/03/12 08:12:49;;;;;;;38.30;23.05;;;179.70;1587.20;;;;;;5010672;28;20105;-74
2021/03/12 08:15:29;;;;;;;62.22;38.00;;;179.80;1587.20;;;;;;5010915;28;20042;-74
2021/03/12 08:17:58;;;;;;;36.47;22.75;;;179.80;1587.20;;;;;;5011071;28;20029;-74
2021/03/12 08:20:26;;;;;;;35.05;22.20;;;179.80;1612.80;;;;;;5010958;28;20032;-74
2021/03/12 08:22:53;;;;;;;37.67;24.52;;;179.90;1612.80;;;;;;5010949;28;20030;-73
2021/03/12 08:25:41;;;;;;;38.30;24.10;;;179.90;1612.80;;;;;;5009468;28;20022;-74
2021/03/12 08:28:06;;;;;;;42.05;24.05;;;179.90;1612.80;;;;;;5008694;28;20088;-74
2021/03/12 08:30:35;;;;;;;45.25;26.75;;;179.90;1612.80;;;;;;5010977;28;20469;-74
2021/03/12 08:33:01;;;;;;;41.00;25.73;;;179.90;1638.40;;;;;;5009351;28;20120;-74
2021/03/12 08:35:33;;;;;;;41.83;28.77;;;180.00;1612.80;;;;;;5010581;28;20428;-74
2021/03/12 08:38:00;;;;;;;36.78;22.55;;;180.00;1612.80;;;;;;5010702;28;20109;-73
2021/03/12 08:40:27;;;;;;;44.35;26.58;;;180.00;1638.40;;;;;;5010713;28;20033;-76
2021/03/12 08:43:00;;;;;;;59.17;32.05;;;180.00;1612.80;;;;;;5010822;28;20073;-73
2021/03/12 08:45:44;;;;;;;114.85;57.38;;;180.10;1612.80;;;;;;5010576;28;20026;-74
2021/03/12 08:48:15;;;;;;;115.70;59.22;;;180.10;1612.80;;;;;;5009122;28;20045;-74
2021/03/12 08:50:42;;;;;;;;;;;204.80;1612.80;;;;;;5011067;28;20029;-76
2021/03/12 08:53:13;;;;;;;56.28;33.13;;;204.90;1612.80;;;;;;5010581;28;19912;-75
2021/03/12 08:55:44;;;;;;;52.35;29.02;;;204.90;1612.80;;;;;;5010445;28;20061;-72
2021/03/12 08:58:11;;;;;;;55.78;31.00;;;204.90;1612.80;;;;;;5010545;28;20037;-75
2021/03/12 09:00:37;;;;;;;59.42;30.48;;;205.00;1638.40;;;;;;5010825;28;20036;-74
2021/03/12 09:03:19;;;;;;;53.17;27.88;;;205.10;1612.80;;;;;;5009648;28;20557;-74
2021/03/12 09:05:52;;;;;;;39.10;24.80;;;205.10;1587.20;;;;;;5010728;28;20037;-73
2021/03/12 09:08:25;;;;;;;48.17;28.23;;;205.20;1587.20;;;;;;5010571;28;20057;-74
2021/03/12 09:10:52;;;;;;;39.47;24.90;;;205.20;1536.00;;;;;;5010335;28;20033;-74
2021/03/12 09:13:23;;;;;;;40.85;25.80;;;205.20;1536.00;;;;;;5010211;28;20021;-72
2021/03/12 09:15:50;;;;;;;39.78;25.80;;;205.30;1561.60;;;;;;5010423;28;20057;-74
2021/03/12 09:18:21;;;;;;;36.63;22.90;;;205.30;1510.40;;;;;;5008673;28;20036;-73
2021/03/12 09:20:55;;;;;;;46.05;28.83;;;205.40;1536.00;;;;;;5005824;28;20045;-74
2021/03/12 09:23:42;;;;;;;28.50;19.23;;;205.50;1536.00;;;;;;5008538;28;20018;-74
2021/03/12 09:26:27;;;;;;;36.17;23.40;;;205.50;1484.80;;;;;;5007317;28;20022;-74
2021/03/12 09:28:57;;;;;;;36.72;22.73;;;205.60;1484.80;;;;;;5008263;28;20056;-75
2021/03/12 09:31:33;;;;;;;34.00;22.08;;;205.60;1484.80;;;;;;5010082;28;20046;-73
2021/03/12 09:34:00;;;;;;;35.95;23.33;;;205.70;1459.20;;;;;;5007818;28;20026;-74
2021/03/12 09:36:32;;;;;;;47.70;29.75;;;205.60;1484.80;;;;;;5007330;28;20393;-74
2021/03/12 09:39:10;;;;;;;44.83;29.08;;;205.70;1484.80;;;;;;5009753;28;20556;-74
2021/03/12 09:41:38;;;;;;;42.33;25.02;;;205.70;1484.80;;;;;;5012897;28;20026;-73
2021/03/12 09:44:11;;;;;;;46.80;27.55;;;230.40;1484.80;;;;;;5011520;28;20052;-74
2021/03/12 09:46:41;;;;;;;46.55;27.65;;;230.50;1484.80;;;;;;5013485;28;20022;-73
2021/03/12 09:49:17;;;;;;;43.72;26.95;;;230.60;1459.20;;;;;;5009756;28;20087;-74
2021/03/12 09:51:45;;;;;;;45.83;28.50;;;230.70;1459.20;;;;;;5012803;28;20048;-73
2021/03/12 09:54:13;;;;;;;52.30;32.28;;;230.70;1433.60;;;;;;5013031;28;20030;-73
2021/03/12 09:56:41;;;;;;;46.45;26.13;;;230.80;1408.00;;;;;;5012139;28;20091;-77
2021/03/12 09:59:07;;;;;;;43.28;25.65;;;230.90;1382.40;;;;;;5011570;28;20120;-74
2021/03/12 10:01:41;;;;;;;38.97;26.25;;;231.00;1382.40;;;;;;5012706;28;20100;-74
2021/03/12 10:04:32;;;;;;;37.88;25.42;;;231.00;1382.40;;;;;;5009904;28;20026;-73
2021/03/12 10:07:17;;;;;;;28.15;19.08;;;231.10;1356.80;;;;;;5013028;28;20362;-74
2021/03/12 10:09:45;;;;;;;34.90;24.20;;;231.30;1356.80;;;;;;5012362;28;20050;-75
2021/03/12 10:12:20;;;;;;;24.65;18.38;;;256.00;1356.80;;;;;;5012116;28;20069;-73
2021/03/12 10:14:49;;;;;;;28.80;19.60;;;256.20;1331.20;;;;;;5012351;28;20084;-73
2021/03/12 10:17:22;;;;;;;37.10;23.75;;;256.30;1305.60;;;;;;5012049;28;20077;-74
2021/03/12 10:19:52;;;;;;;34.25;21.70;;;256.30;1305.60;;;;;;5013284;28;20030;-74
2021/03/12 10:22:45;;;;;;;32.65;23.35;;;256.40;1305.60;;;;;;5013102;28;20037;-75
2021/03/12 10:25:16;;;;;;;86.80;52.17;;;256.40;1280.00;;;;;;5012852;28;20034;-74
2021/03/12 10:27:45;;;;;;;58.15;36.50;;;256.50;1280.00;;;;;;5013297;28;20048;-74
2021/03/12 10:30:19;;;;;;;43.75;28.45;;;256.60;1305.60;;;;;;5012953;28;20096;-74
2021/03/12 10:32:47;;;;;;;38.83;21.23;;;256.80;1280.00;;;;;;5013442;28;20105;-75
2021/03/12 10:35:21;;;;;;;37.53;22.17;;;256.90;1305.60;;;;;;5011752;28;20041;-74
2021/03/12 10:37:48;;;;;;;47.60;25.17;;;256.90;1280.00;;;;;;5012005;28;20431;-73
2021/03/12 10:40:15;;;;;;;100.22;25.25;;;256.90;1280.00;;;;;;5013251;28;20408;-74
2021/03/12 10:42:41;;;;;;;38.08;21.55;;;281.60;1331.20;;;;;;5013395;28;20033;-76
2021/03/12 10:45:09;;;;;;;33.42;21.63;;;281.60;1305.60;;;;;;5012322;28;20026;-74
2021/03/12 10:47:36;;;;;;;43.80;23.50;;;281.70;1305.60;;;;;;5013591;28;20033;-74
2021/03/12 10:50:22;;;;;;;41.90;24.55;;;281.70;1280.00;;;;;;5014341;28;20026;-76
2021/03/12 10:52:48;;;;;;;39.10;24.38;;;281.70;1280.00;;;;;;5014231;28;20025;-76
2021/03/12 10:55:14;;;;;;;41.42;25.00;;;281.90;1280.00;;;;;;5014718;28;20030;-76
2021/03/12 10:57:48;;;;;;;55.13;35.05;;;281.80;1305.60;;;;;;5013771;28;20030;-72
2021/03/12 11:00:16;;;;;;;42.30;28.80;;;281.80;1305.60;;;;;;5012733;28;20026;-77
2021/03/12 11:02:42;;;;;;;42.92;26.35;;;281.90;1305.60;;;;;;5014404;28;20405;-75
2021/03/12 11:05:09;;;;;;;40.58;27.55;;;281.90;1331.20;;;;;;5014106;28;20018;-75
2021/03/12 11:07:38;;;;;;;48.30;30.70;;;281.90;1331.20;;;;;;5014139;28;20431;-73
2021/03/12 11:10:04;;;;;;;43.83;27.45;;;282.00;1305.60;;;;;;5014236;28;20018;-74
2021/03/12 11:12:45;;;;;;;43.72;28.50;;;282.10;1305.60;;;;;;5013307;28;20022;-72
2021/03/12 11:15:17;;;;;;;51.95;34.65;;;282.10;1305.60;;;;;;5014717;28;20034;-74
2021/03/12 11:17:47;;;;;;;38.75;26.77;;;282.20;1305.60;;;;;;5015294;28;20085;-74
2021/03/12 11:20:20;;;;;;;44.83;27.97;;;282.20;1280.00;;;;;;5013721;28;20021;-75
2021/03/12 11:22:48;;;;;;;44.17;28.90;;;282.30;1280.00;;;;;;5014719;28;20026;-74
2021/03/12 11:25:16;;;;;;;39.80;26.77;;;282.30;1305.60;;;;;;5013484;28;20435;-75
2021/03/12 11:27:43;;;;;;;48.85;30.45;;;282.40;1305.60;;;;;;5013578;28;20030;-75
2021/03/12 11:30:13;;;;;;;112.05;68.25;;;282.40;1305.60;;;;;;5011095;28;20084;-74
2021/03/12 11:32:39;;;;;;;68.75;41.28;;;282.50;1305.60;;;;;;5010471;28;20022;-74
2021/03/12 11:35:07;;;;;;;56.25;35.45;;;282.50;1305.60;;;;;;5009804;28;20120;-72
2021/03/12 11:37:34;;;;;;;90.28;59.35;;;307.20;1305.60;;;;;;5011521;28;20080;-74
2021/03/12 11:39:59;;;;;;;86.10;59.20;;;307.20;1331.20;;;;;;5011175;28;20018;-75
2021/03/12 11:42:26;;;;;;;64.80;44.25;;;307.20;1331.20;;;;;;5011534;28;20485;-74
2021/03/12 11:44:52;;;;;;;54.97;33.22;;;307.30;1331.20;;;;;;5011131;28;20534;-74
2021/03/12 11:47:17;;;;;;;49.40;31.35;;;307.30;1331.20;;;;;;5010163;28;20022;-73
2021/03/12 11:49:47;;;;;;;45.22;30.25;;;307.30;1331.20;;;;;;5009407;28;20033;-74
2021/03/12 11:52:14;;;;;;;44.00;28.30;;;307.40;1305.60;;;;;;5010652;28;20105;-74
2021/03/12 11:54:41;;;;;;;38.03;26.88;;;307.40;1305.60;;;;;;5010335;28;20078;-72
2021/03/12 11:57:07;;;;;;;39.35;25.25;;;307.40;1280.00;;;;;;5010797;28;20038;-75
2021/03/12 11:59:33;;;;;;;45.85;28.92;;;307.40;1305.60;;;;;;5010458;28;20072;-74
2021/03/12 12:02:00;;;;;;;45.47;28.15;;;307.50;1305.60;;;;;;5009795;28;20028;-73
2021/03/12 12:04:29;;;;;;;43.03;26.42;;;307.50;1305.60;;;;;;5010145;28;20092;-74
2021/03/12 12:06:58;;;;;;;42.70;28.27;;;307.50;1305.60;;;;;;5008380;28;20022;-74